Time;durP1;ratioP1;P1;durP2;ratioP2;P2;SDS_P1;SDS_P2;PMS_P1;PMS_P2;Temp;Humidity;BMP_temperature;BMP_pressure;BME280_temperature;BME280_humidity;BME280_pressure;Samples;Min_cycle;Max_cycle;Signal;HPM_P1;HPM_P2
2022/05/17 00:02:14;;;;;;;6.47;6.18;;;;;;;14.64;79.75;100811.09;5027363;28;20113;-63
2022/05/17 00:04:39;;;;;;;6.10;5.90;;;;;;;14.75;79.31;100807.88;5022926;28;20071;-63
2022/05/17 00:07:05;;;;;;;6.40;6.10;;;;;;;14.83;79.05;100806.88;5031960;28;20022;-61
2022/05/17 00:09:31;;;;;;;6.40;6.10;;;;;;;14.80;78.54;100815.31;5031855;28;20411;-62
2022/05/17 00:11:57;;;;;;;6.50;6.20;;;;;;;14.85;78.50;100810.22;5030816;28;20025;-62
2022/05/17 00:14:23;;;;;;;6.32;6.03;;;;;;;14.79;78.63;100813.66;5031632;28;20028;-62
2022/05/17 00:16:49;;;;;;;6.47;6.18;;;;;;;14.81;78.22;100809.75;5030634;28;20036;-62
2022/05/17 00:19:19;;;;;;;6.40;6.10;;;;;;;14.72;78.15;100807.44;5031628;28;20389;-62
2022/05/17 00:21:45;;;;;;;6.47;6.18;;;;;;;14.85;77.46;100808.38;5031573;28;20026;-61
2022/05/17 00:24:12;;;;;;;5.97;5.78;;;;;;;14.78;78.30;100799.47;5031889;28;20025;-61
2022/05/17 00:26:39;;;;;;;6.40;6.10;;;;;;;14.78;78.88;100802.16;5022275;28;20399;-62
2022/05/17 00:29:05;;;;;;;6.50;6.20;;;;;;;14.96;78.14;100798.97;5028276;28;20064;-61
2022/05/17 00:31:31;;;;;;;6.45;6.15;;;;;;;14.95;77.77;100791.97;5031715;28;20026;-64
2022/05/17 00:33:57;;;;;;;6.40;6.10;;;;;;;15.01;77.18;100795.72;5031941;28;20025;-61
2022/05/17 00:36:23;;;;;;;6.38;6.07;;;;;;;14.83;77.37;100794.34;5031336;28;20021;-62
2022/05/17 00:38:49;;;;;;;6.13;5.93;;;;;;;14.75;77.59;100796.38;5031758;28;20029;-61
2022/05/17 00:41:14;;;;;;;6.20;6.00;;;;;;;14.84;76.98;100798.69;5031838;28;20492;-62
2022/05/17 00:46:39;;;;;;;6.25;5.97;;;;;;;14.86;76.47;100787.81;5031852;28;20083;-62
2022/05/17 00:49:10;;;;;;;6.25;6.00;;;;;;;14.84;76.58;100780.00;5031418;28;20548;-62
2022/05/17 00:51:38;;;;;;;6.55;6.25;;;;;;;14.77;76.72;100776.47;5031313;28;20029;-61
2022/05/17 00:54:10;;;;;;;6.47;6.18;;;;;;;14.71;77.31;100787.09;5031694;28;20091;-62
2022/05/17 00:56:49;;;;;;;6.30;6.00;;;;;;;14.46;78.46;100784.84;5031546;28;20032;-62
2022/05/17 00:59:15;;;;;;;6.28;5.97;;;;;;;14.51;78.47;100785.09;5031359;28;20083;-62
2022/05/17 01:01:41;;;;;;;6.35;6.05;;;;;;;14.51;77.53;100777.09;5031564;28;20029;-62
2022/05/17 01:04:12;;;;;;;6.18;5.97;;;;;;;14.46;77.77;100778.69;5031713;28;20481;-62
2022/05/17 01:06:45;;;;;;;6.57;6.28;;;;;;;14.41;78.31;100773.94;5031179;28;20025;-62
2022/05/17 01:09:12;;;;;;;6.32;6.03;;;;;;;14.40;78.44;100769.59;5031666;28;20021;-62
2022/05/17 01:11:39;;;;;;;6.68;6.38;;;;;;;14.34;78.68;100773.03;5031321;28;20028;-62
2022/05/17 01:16:49;;;;;;;;;;;;;;;14.33;79.53;100758.06;5032084;28;20392;-63
2022/05/17 01:19:14;;;;;;;6.30;6.00;;;;;;;14.30;79.62;100761.09;5031210;28;19999;-62
2022/05/17 01:21:40;;;;;;;6.40;6.10;;;;;;;14.16;81.00;100770.81;5031221;28;20022;-62
2022/05/17 01:24:06;;;;;;;6.40;6.10;;;;;;;14.14;81.55;100770.19;5034005;28;20033;-62
2022/05/17 01:26:35;;;;;;;6.20;6.00;;;;;;;14.08;81.63;100773.63;5035012;28;20131;-62
2022/05/17 01:29:01;;;;;;;6.22;6.00;;;;;;;14.07;81.25;100774.66;5034875;28;20393;-63
2022/05/17 01:31:28;;;;;;;6.25;5.97;;;;;;;14.05;81.42;100782.03;5034634;28;20056;-61
2022/05/17 01:33:53;;;;;;;6.35;6.05;;;;;;;14.05;81.75;100782.84;5034832;28;20416;-62
2022/05/17 01:36:22;;;;;;;6.57;6.28;;;;;;;13.99;82.51;100790.78;5021093;28;20028;-62
2022/05/17 01:38:51;;;;;;;6.40;6.10;;;;;;;13.82;83.18;100783.03;5034547;28;20083;-61
2022/05/17 01:41:18;;;;;;;6.20;6.00;;;;;;;13.87;83.55;100787.78;5034360;28;20026;-61
2022/05/17 01:43:43;;;;;;;6.10;5.90;;;;;;;13.82;83.47;100774.22;5034761;28;20052;-62
2022/05/17 01:46:10;;;;;;;6.38;6.10;;;;;;;13.85;83.95;100781.00;5034478;28;20451;-62
2022/05/17 01:48:38;;;;;;;6.30;6.00;;;;;;;13.85;83.75;100776.50;5034421;28;20028;-62
2022/05/17 01:51:08;;;;;;;6.45;6.15;;;;;;;13.85;84.14;100778.34;5031952;28;20148;-60
2022/05/17 01:53:34;;;;;;;6.38;6.07;;;;;;;13.83;84.50;100779.34;5034279;28;20029;-61
2022/05/17 01:56:05;;;;;;;6.07;5.88;;;;;;;13.73;86.70;100773.50;5034232;28;20026;-62
2022/05/17 01:58:31;;;;;;;6.10;5.90;;;;;;;13.70;87.17;100768.53;5034432;28;20108;-62
2022/05/17 02:00:56;;;;;;;6.38;6.07;;;;;;;13.59;88.18;100763.72;5034628;28;20417;-62
2022/05/17 02:03:22;;;;;;;6.50;6.20;;;;;;;13.63;88.38;100762.31;5034157;28;20064;-62
2022/05/17 02:05:47;;;;;;;6.47;6.18;;;;;;;13.57;87.63;100759.56;5034260;28;20496;-62
2022/05/17 02:08:13;;;;;;;6.30;6.05;;;;;;;13.43;88.53;100764.75;5034044;28;20392;-62
2022/05/17 02:10:38;;;;;;;6.70;6.40;;;;;;;13.37;88.31;100764.72;5033934;28;20079;-62
2022/05/17 02:13:04;;;;;;;6.32;6.03;;;;;;;13.39;87.67;100768.00;5033776;28;20479;-61
2022/05/17 02:15:30;;;;;;;6.40;6.13;;;;;;;13.40;87.61;100770.47;5033882;28;20026;-61
2022/05/17 02:17:55;;;;;;;6.05;5.85;;;;;;;13.34;88.52;100773.06;5032702;28;20024;-62
2022/05/17 02:20:21;;;;;;;6.35;6.05;;;;;;;13.35;87.83;100766.72;5033904;28;20021;-62
2022/05/17 02:22:47;;;;;;;6.00;5.80;;;;;;;13.33;87.79;100777.56;5033870;28;20028;-61
2022/05/17 02:25:12;;;;;;;6.25;6.00;;;;;;;13.26;87.74;100774.81;5033690;28;20037;-61
2022/05/17 02:27:38;;;;;;;6.63;6.32;;;;;;;13.18;87.40;100760.75;5033587;28;20035;-63
2022/05/17 02:30:06;;;;;;;6.45;6.15;;;;;;;13.08;87.15;100773.53;5033522;28;20018;-62
2022/05/17 02:32:32;;;;;;;6.43;6.13;;;;;;;13.17;86.53;100788.41;5021126;28;20036;-62
2022/05/17 02:34:58;;;;;;;6.28;6.00;;;;;;;13.18;86.31;100787.38;5032568;28;20025;-62
2022/05/17 02:37:23;;;;;;;6.03;5.82;;;;;;;13.23;85.82;100787.69;5033612;28;20115;-61
2022/05/17 02:39:49;;;;;;;6.32;6.03;;;;;;;13.16;85.78;100784.91;5033535;28;20092;-62
2022/05/17 02:42:15;;;;;;;6.20;6.00;;;;;;;13.09;86.19;100775.19;5033357;28;20064;-62
2022/05/17 02:44:40;;;;;;;6.35;6.05;;;;;;;13.05;86.60;100781.88;5031939;28;20057;-62
2022/05/17 02:47:07;;;;;;;6.63;6.32;;;;;;;13.12;87.15;100785.44;5033443;28;20025;-62
2022/05/17 02:49:32;;;;;;;6.40;6.10;;;;;;;13.11;87.59;100789.94;5032955;28;20022;-61
2022/05/17 02:52:04;;;;;;;6.13;5.93;;;;;;;13.07;88.51;100785.16;5033416;28;20030;-62
2022/05/17 02:54:30;;;;;;;6.75;6.45;;;;;;;13.10;88.21;100785.63;5023177;28;20045;-61
2022/05/17 02:56:56;;;;;;;6.35;6.05;;;;;;;13.15;88.45;100788.59;5033338;28;20052;-61
2022/05/17 02:59:22;;;;;;;6.00;5.80;;;;;;;13.22;87.55;100778.03;5033224;28;20485;-61
2022/05/17 03:01:47;;;;;;;6.10;5.90;;;;;;;13.16;88.47;100789.41;5020112;28;20457;-63
2022/05/17 03:04:13;;;;;;;8.20;7.80;;;;;;;13.24;88.55;100786.69;5032433;28;20104;-62
2022/05/17 03:06:43;;;;;;;6.40;6.10;;;;;;;13.28;87.98;100787.94;5032565;28;20493;-61
2022/05/17 03:09:09;;;;;;;6.28;6.00;;;;;;;13.37;87.74;100781.53;5032877;28;20029;-62
2022/05/17 03:11:43;;;;;;;6.53;6.22;;;;;;;13.53;86.11;100780.47;5032518;28;20021;-62
2022/05/17 03:14:10;;;;;;;6.15;5.95;;;;;;;13.52;87.02;100781.47;5032827;28;20034;-63
2022/05/17 03:16:36;;;;;;;6.40;6.10;;;;;;;13.64;85.50;100782.63;5032662;28;20025;-62
2022/05/17 03:19:03;;;;;;;6.18;5.95;;;;;;;13.85;84.95;100781.00;5032655;28;20111;-62
2022/05/17 03:21:28;;;;;;;6.60;6.30;;;;;;;14.38;81.52;100771.63;5032588;28;20032;-62
2022/05/17 03:23:54;;;;;;;6.13;5.93;;;;;;;14.46;81.52;100779.53;5032636;28;20397;-62
2022/05/17 03:26:21;;;;;;;6.00;5.80;;;;;;;15.63;75.24;100789.41;5032558;28;20025;-62
2022/05/17 03:28:46;;;;;;;6.60;6.30;;;;;;;16.60;70.63;100791.59;5032762;28;20032;-62
2022/05/17 03:31:13;;;;;;;6.53;6.22;;;;;;;17.36;66.39;100797.19;5031328;28;20361;-62
2022/05/17 03:33:39;;;;;;;6.05;5.85;;;;;;;15.98;71.40;100790.94;5032420;28;20068;-61
2022/05/17 03:36:05;;;;;;;6.50;6.20;;;;;;;16.47;69.98;100797.78;5027081;28;20022;-63
2022/05/17 03:38:31;;;;;;;6.50;6.20;;;;;;;16.12;71.40;100796.31;5023469;28;20431;-62
2022/05/17 03:40:58;;;;;;;6.40;6.10;;;;;;;15.87;72.05;100785.38;5032389;28;20017;-62
2022/05/17 03:43:24;;;;;;;6.40;6.10;;;;;;;15.97;72.13;100796.50;5027633;28;20050;-62
2022/05/17 03:45:50;;;;;;;6.50;6.20;;;;;;;16.14;71.78;100802.28;5023605;28;20044;-61
2022/05/17 03:48:16;;;;;;;6.50;6.20;;;;;;;16.64;69.63;100806.19;5032105;28;20029;-62
2022/05/17 03:50:42;;;;;;;6.60;6.30;;;;;;;16.50;69.82;100799.22;5031796;28;20544;-62
2022/05/17 03:53:08;;;;;;;6.43;6.13;;;;;;;16.49;69.81;100795.72;5031977;28;20087;-62
2022/05/17 03:55:34;;;;;;;6.90;6.60;;;;;;;16.14;71.34;100800.44;5031977;28;20408;-62
2022/05/17 03:57:59;;;;;;;6.60;6.30;;;;;;;16.41;70.89;100803.13;5032205;28;20029;-61
2022/05/17 04:00:25;;;;;;;6.45;6.15;;;;;;;16.44;70.45;100797.34;5031955;28;20484;-62
2022/05/17 04:02:51;;;;;;;6.28;6.03;;;;;;;16.18;71.90;100804.34;5031825;28;20067;-62
2022/05/17 04:05:17;;;;;;;6.60;6.30;;;;;;;16.40;71.50;100801.50;5027258;28;20030;-62
2022/05/17 04:07:43;;;;;;;6.50;6.20;;;;;;;16.52;71.24;100807.84;5030756;28;20064;-63
2022/05/17 04:10:11;;;;;;;6.63;6.32;;;;;;;16.73;70.60;100804.16;5031694;28;20061;-62
2022/05/17 04:12:38;;;;;;;6.75;6.45;;;;;;;17.25;68.67;100803.19;5031394;28;20025;-62
2022/05/17 04:15:06;;;;;;;6.90;6.60;;;;;;;17.83;66.12;100802.34;5032025;28;20087;-62
2022/05/17 04:17:32;;;;;;;6.70;6.40;;;;;;;17.94;65.74;100796.31;5031718;28;20021;-62
2022/05/17 04:20:01;;;;;;;6.70;6.40;;;;;;;18.41;63.89;100794.91;5030215;28;20550;-62
2022/05/17 04:22:27;;;;;;;6.75;6.45;;;;;;;18.84;62.29;100799.50;5031723;28;20473;-63
2022/05/17 04:24:53;;;;;;;6.93;6.63;;;;;;;18.45;63.54;100800.69;5031758;28;20034;-62
2022/05/17 04:27:19;;;;;;;6.70;6.40;;;;;;;19.04;62.26;100799.31;5029975;28;20493;-62
2022/05/17 04:29:44;;;;;;;6.85;6.55;;;;;;;18.75;63.04;100787.41;5031380;28;20026;-62
2022/05/17 04:32:10;;;;;;;6.90;6.60;;;;;;;19.16;62.70;100796.69;5031951;28;20021;-62
2022/05/17 04:34:36;;;;;;;7.00;6.70;;;;;;;20.87;58.07;100793.34;5018509;28;20534;-62
2022/05/17 04:37:02;;;;;;;6.82;6.53;;;;;;;23.74;48.62;100799.72;5032058;28;20485;-63
2022/05/17 04:39:27;;;;;;;7.10;6.80;;;;;;;24.06;46.26;100807.88;5032142;28;20060;-63
2022/05/17 04:41:53;;;;;;;7.05;6.75;;;;;;;24.86;42.94;100815.03;5029941;28;20533;-62
2022/05/17 04:44:18;;;;;;;6.97;6.68;;;;;;;25.26;41.05;100811.72;5031065;28;20056;-62
2022/05/17 04:46:44;;;;;;;7.10;6.80;;;;;;;24.85;41.52;100815.31;5030953;28;20069;-63
2022/05/17 04:49:09;;;;;;;7.20;6.90;;;;;;;23.87;43.09;100816.41;5029731;28;20648;-62
2022/05/17 04:51:35;;;;;;;6.93;6.63;;;;;;;23.72;43.31;100805.38;5031079;28;20428;-62
2022/05/17 04:54:01;;;;;;;6.80;6.50;;;;;;;24.30;42.09;100808.34;5031141;28;20036;-62
2022/05/17 04:56:27;;;;;;;7.05;6.75;;;;;;;23.46;43.74;100808.88;5031524;28;20113;-63
2022/05/17 04:58:53;;;;;;;7.00;6.70;;;;;;;23.75;43.27;100806.78;5033961;28;20029;-63
2022/05/17 05:01:20;;;;;;;6.90;6.60;;;;;;;24.53;42.81;100808.88;5035092;28;20013;-63
2022/05/17 05:03:46;;;;;;;6.90;6.60;;;;;;;24.33;41.66;100807.88;5034966;28;20029;-63
2022/05/17 05:06:11;;;;;;;6.85;6.55;;;;;;;24.64;41.37;100819.78;5035211;28;20040;-62
2022/05/17 05:08:37;;;;;;;6.80;6.50;;;;;;;24.53;41.93;100822.44;5035113;28;20029;-63
2022/05/17 05:11:03;;;;;;;6.45;6.15;;;;;;;23.85;44.20;100817.72;5033963;28;20029;-63
2022/05/17 05:13:28;;;;;;;6.85;6.55;;;;;;;23.64;44.57;100822.09;5034735;28;20550;-62
2022/05/17 05:15:55;;;;;;;7.10;6.80;;;;;;;23.86;44.10;100814.75;5033593;28;20028;-63
2022/05/17 05:18:20;;;;;;;6.70;6.40;;;;;;;24.27;42.49;100818.66;5025610;28;20029;-63
2022/05/17 05:20:46;;;;;;;6.90;6.60;;;;;;;25.32;39.77;100815.28;5034609;28;20079;-63
2022/05/17 05:23:12;;;;;;;6.97;6.68;;;;;;;26.74;36.83;100816.59;5034699;28;20091;-61
2022/05/17 05:25:37;;;;;;;7.13;6.82;;;;;;;27.48;35.40;100819.38;5034836;28;20021;-63
2022/05/17 05:28:06;;;;;;;6.93;6.63;;;;;;;26.60;35.52;100813.63;5030804;28;20017;-62
2022/05/17 05:30:31;;;;;;;7.00;6.70;;;;;;;27.22;34.51;100818.66;5034560;28;20025;-63
2022/05/17 05:32:57;;;;;;;7.15;6.85;;;;;;;28.28;32.85;100827.31;5042749;28;20489;-63
2022/05/17 05:35:27;;;;;;;7.10;6.80;;;;;;;28.08;33.23;100822.84;5034865;28;20059;-63
2022/05/17 05:37:54;;;;;;;7.30;7.00;;;;;;;30.02;30.78;100828.06;5028912;28;20080;-62
2022/05/17 05:40:21;;;;;;;7.20;6.90;;;;;;;30.14;30.10;100823.81;5034752;28;20052;-62
2022/05/17 05:42:49;;;;;;;6.93;6.63;;;;;;;31.13;29.03;100828.03;5022011;28;20013;-63
2022/05/17 05:45:14;;;;;;;7.43;7.13;;;;;;;30.92;28.49;100819.44;5034100;28;20412;-62
2022/05/17 05:47:40;;;;;;;7.18;6.88;;;;;;;30.87;28.96;100814.06;5034304;28;20029;-62
2022/05/17 05:50:07;;;;;;;7.20;6.90;;;;;;;30.02;29.78;100823.41;5034273;28;20018;-62
2022/05/17 05:52:34;;;;;;;7.10;6.80;;;;;;;30.89;28.58;100821.97;5034418;28;20030;-62
2022/05/17 05:55:00;;;;;;;7.10;6.80;;;;;;;31.20;28.37;100822.16;5034013;28;20036;-62
2022/05/17 05:57:27;;;;;;;7.00;6.70;;;;;;;30.41;29.48;100822.28;5034504;28;20025;-63
2022/05/17 05:59:52;;;;;;;7.40;7.10;;;;;;;31.01;28.34;100823.09;5034171;28;20051;-63
2022/05/17 06:02:18;;;;;;;7.30;7.00;;;;;;;32.13;27.28;100828.88;5034427;28;20017;-62
2022/05/17 06:04:44;;;;;;;7.20;6.90;;;;;;;31.53;28.11;100826.41;5031666;28;20033;-63
2022/05/17 06:07:09;;;;;;;7.18;6.88;;;;;;;31.80;27.15;100814.59;5020389;28;20032;-63
2022/05/17 06:09:35;;;;;;;7.22;6.93;;;;;;;31.07;28.19;100815.59;5032719;28;20033;-63
2022/05/17 06:12:00;;;;;;;6.90;6.60;;;;;;;31.32;28.07;100812.34;5031361;28;20365;-63
2022/05/17 06:14:27;;;;;;;7.22;6.93;;;;;;;31.73;27.39;100813.34;5033501;28;20120;-63
2022/05/17 06:16:52;;;;;;;6.80;6.50;;;;;;;33.07;25.61;100816.03;5033922;28;20121;-63
2022/05/17 06:19:19;;;;;;;7.20;6.90;;;;;;;33.56;25.04;100825.03;5033202;28;20025;-63
2022/05/17 06:21:45;;;;;;;7.30;7.00;;;;;;;32.97;25.25;100817.09;5033532;28;20087;-62
2022/05/17 06:24:11;;;;;;;7.18;6.88;;;;;;;33.67;24.85;100814.53;5033669;28;20037;-63
2022/05/17 06:26:36;;;;;;;7.15;6.85;;;;;;;34.05;24.11;100818.28;5033536;28;20087;-63
2022/05/17 06:29:03;;;;;;;7.30;7.00;;;;;;;33.26;24.49;100807.47;5034817;28;20112;-63
2022/05/17 06:31:28;;;;;;;7.30;7.00;;;;;;;33.63;24.71;100819.06;5048756;28;20051;-63
2022/05/17 06:33:54;;;;;;;7.20;6.90;;;;;;;34.07;23.79;100812.44;5033314;28;20029;-64
2022/05/17 06:36:19;;;;;;;7.13;6.82;;;;;;;34.27;24.36;100822.78;5031665;28;20078;-63
2022/05/17 06:38:44;;;;;;;7.47;7.18;;;;;;;34.27;23.89;100817.28;5022147;28;20048;-62
2022/05/17 06:41:10;;;;;;;7.20;6.90;;;;;;;34.85;23.37;100815.81;5033395;28;20404;-63
2022/05/17 06:43:36;;;;;;;7.10;6.80;;;;;;;34.25;23.01;100816.78;5036777;28;20050;-63
2022/05/17 06:46:02;;;;;;;7.10;6.80;;;;;;;34.84;22.41;100819.72;5033183;28;20025;-63
2022/05/17 06:48:29;;;;;;;7.15;6.85;;;;;;;34.10;22.92;100822.00;5033450;28;20025;-63
2022/05/17 06:51:07;;;;;;;7.20;6.90;;;;;;;34.13;23.25;100818.59;5033385;28;20025;-64
2022/05/17 06:53:32;;;;;;;7.15;6.85;;;;;;;32.27;25.38;100817.03;5020435;28;20029;-64
2022/05/17 06:55:58;;;;;;;7.10;6.80;;;;;;;33.65;22.96;100814.88;5032904;28;20028;-63
2022/05/17 06:58:25;;;;;;;7.13;6.82;;;;;;;34.45;21.65;100820.00;5033013;28;20037;-63
2022/05/17 07:00:51;;;;;;;7.07;6.78;;;;;;;34.77;20.94;100813.91;5033011;28;20057;-63
2022/05/17 07:03:16;;;;;;;6.97;6.68;;;;;;;35.52;20.13;100811.41;5033223;28;20060;-63
2022/05/17 07:05:42;;;;;;;7.05;6.75;;;;;;;35.93;19.58;100812.59;5018758;28;20030;-62
2022/05/17 07:08:07;;;;;;;7.20;6.90;;;;;;;34.53;20.23;100813.69;5023376;28;20037;-63
2022/05/17 07:13:17;;;;;;;7.13;6.82;;;;;;;34.96;19.22;100808.00;5032813;28;20152;-64
2022/05/17 07:15:46;;;;;;;7.30;7.00;;;;;;;34.27;19.67;100802.69;5032744;28;20116;-63
2022/05/17 07:18:14;;;;;;;7.20;6.90;;;;;;;34.77;19.28;100799.31;5032825;28;20028;-63
2022/05/17 07:20:40;;;;;;;7.10;6.80;;;;;;;33.98;20.46;100808.88;5032023;28;20485;-64
2022/05/17 07:23:06;;;;;;;7.00;6.70;;;;;;;34.74;20.57;100800.81;5032593;28;20033;-63
2022/05/17 07:25:33;;;;;;;7.10;6.80;;;;;;;35.41;19.90;100783.44;5032405;28;20511;-63
2022/05/17 07:27:59;;;;;;;7.00;6.70;;;;;;;33.45;21.17;100791.53;5012947;28;20512;-63
2022/05/17 07:30:24;;;;;;;7.20;6.90;;;;;;;34.61;20.59;100786.09;5025276;28;20052;-63
2022/05/17 07:32:50;;;;;;;7.10;6.80;;;;;;;34.78;20.83;100787.97;5032226;28;20104;-62
2022/05/17 07:35:16;;;;;;;7.20;6.90;;;;;;;34.43;21.38;100784.53;5032375;28;20051;-63
2022/05/17 07:37:41;;;;;;;7.10;6.80;;;;;;;34.43;21.24;100783.72;5032171;28;20410;-63
2022/05/17 07:40:10;;;;;;;7.30;7.00;;;;;;;34.96;20.69;100776.88;5019734;28;20096;-63
2022/05/17 07:42:36;;;;;;;7.05;6.75;;;;;;;34.39;20.93;100774.47;5032118;28;20026;-63
2022/05/17 07:45:02;;;;;;;7.05;6.75;;;;;;;33.95;21.46;100780.09;5031864;28;20052;-63
2022/05/17 07:47:29;;;;;;;7.10;6.80;;;;;;;33.36;22.08;100784.38;5032150;28;20029;-63
2022/05/17 07:49:55;;;;;;;7.30;7.00;;;;;;;31.73;23.31;100774.94;5032226;28;20026;-64
2022/05/17 07:52:20;;;;;;;6.95;6.65;;;;;;;32.04;23.31;100775.06;5032121;28;20031;-63
2022/05/17 07:54:46;;;;;;;6.95;6.65;;;;;;;30.13;25.11;100772.94;5032139;28;20033;-62
2022/05/17 07:57:11;;;;;;;6.82;6.53;;;;;;;31.97;23.62;100769.22;5031990;28;20025;-63
2022/05/17 07:59:37;;;;;;;6.95;6.65;;;;;;;31.88;23.17;100777.38;5032098;28;20040;-63
2022/05/17 08:02:02;;;;;;;6.70;6.40;;;;;;;30.33;23.90;100763.53;5024085;28;20029;-63
2022/05/17 08:04:30;;;;;;;7.20;6.90;;;;;;;32.81;21.67;100766.44;5031876;28;20083;-63
2022/05/17 08:06:56;;;;;;;7.18;6.88;;;;;;;31.17;24.00;100767.97;5021626;28;20055;-63
2022/05/17 08:09:23;;;;;;;6.93;6.63;;;;;;;30.44;24.50;100767.72;5031768;28;20057;-62
2022/05/17 08:11:50;;;;;;;6.95;6.65;;;;;;;30.64;24.53;100754.78;5024813;28;20080;-64
2022/05/17 08:14:15;;;;;;;6.88;6.57;;;;;;;29.40;26.04;100757.84;5031607;28;20029;-63
2022/05/17 08:16:42;;;;;;;7.00;6.70;;;;;;;31.45;23.56;100758.59;5031850;28;20032;-63
2022/05/17 08:19:09;;;;;;;6.72;6.43;;;;;;;30.19;24.87;100751.78;5025423;28;20083;-63
2022/05/17 08:21:35;;;;;;;6.80;6.50;;;;;;;30.82;24.43;100756.63;5026585;28;20033;-63
2022/05/17 08:24:01;;;;;;;6.85;6.55;;;;;;;30.41;24.97;100749.19;5031703;28;20040;-64
2022/05/17 08:29:11;;;;;;;7.18;6.88;;;;;;;29.95;25.47;100747.19;5030256;28;20515;-62
2022/05/17 08:31:37;;;;;;;6.97;6.68;;;;;;;29.72;25.39;100740.72;5031477;28;20041;-63
2022/05/17 08:34:02;;;;;;;6.70;6.40;;;;;;;29.82;24.26;100731.56;5034828;28;20033;-63
2022/05/17 08:36:28;;;;;;;6.93;6.63;;;;;;;31.29;22.61;100738.13;5035747;28;20373;-63
2022/05/17 08:38:53;;;;;;;6.97;6.68;;;;;;;30.27;23.38;100734.66;5035688;28;20083;-63
2022/05/17 08:41:41;;;;;;;6.90;6.60;;;;;;;31.28;22.57;100731.00;5035568;28;20021;-63
2022/05/17 08:44:14;;;;;;;6.90;6.60;;;;;;;29.76;23.51;100740.16;5023461;28;20084;-62
2022/05/17 08:47:00;;;;;;;6.97;6.68;;;;;;;29.61;23.73;100741.19;5031435;28;20369;-63
2022/05/17 08:49:33;;;;;;;7.10;6.80;;;;;;;29.00;24.13;100731.88;5034059;28;20041;-63
2022/05/17 08:52:09;;;;;;;7.10;6.80;;;;;;;29.70;23.94;100732.00;5035195;28;20028;-63
2022/05/17 08:54:36;;;;;;;6.90;6.60;;;;;;;29.95;23.17;100724.50;5035679;28;20056;-63
2022/05/17 08:57:02;;;;;;;6.95;6.65;;;;;;;30.11;22.34;100717.66;5027412;28;20028;-63
2022/05/17 08:59:33;;;;;;;6.70;6.40;;;;;;;29.39;23.40;100719.91;5021840;28;20146;-63
2022/05/17 09:02:05;;;;;;;6.80;6.50;;;;;;;30.13;22.42;100711.94;5035116;28;20485;-63
2022/05/17 09:04:57;;;;;;;6.88;6.57;;;;;;;28.89;23.44;100705.78;5031138;28;20053;-63
2022/05/17 09:07:27;;;;;;;6.60;6.30;;;;;;;29.10;21.68;100718.09;5027658;28;20037;-63
2022/05/17 09:10:10;;;;;;;6.72;6.43;;;;;;;29.91;22.25;100705.16;5035219;28;20052;-63
2022/05/17 09:12:41;;;;;;;6.80;6.50;;;;;;;29.72;21.53;100707.09;5034759;28;20033;-62
2022/05/17 09:15:09;;;;;;;6.85;6.55;;;;;;;28.70;22.98;100700.28;5034924;28;20527;-62
2022/05/17 09:17:35;;;;;;;6.68;6.38;;;;;;;30.01;22.12;100704.16;5034654;28;20057;-64
2022/05/17 09:20:01;;;;;;;6.97;6.68;;;;;;;29.63;23.38;100704.25;5034712;28;20053;-64
2022/05/17 09:22:26;;;;;;;6.60;6.30;;;;;;;28.24;24.15;100700.75;5034481;28;20473;-63
2022/05/17 09:24:59;;;;;;;6.72;6.43;;;;;;;28.22;23.54;100702.16;5034924;28;20098;-63
2022/05/17 09:27:33;;;;;;;6.75;6.45;;;;;;;28.89;23.86;100695.69;5025415;28;20049;-62
2022/05/17 09:30:27;;;;;;;6.90;6.60;;;;;;;29.03;24.10;100692.25;5034825;28;20032;-63
2022/05/17 09:33:05;;;;;;;7.00;6.70;;;;;;;28.11;25.50;100690.50;5034535;28;20041;-63
2022/05/17 09:35:32;;;;;;;6.63;6.32;;;;;;;28.26;25.93;100690.34;5034477;28;20025;-63
2022/05/17 09:38:02;;;;;;;6.78;6.47;;;;;;;27.53;26.04;100685.78;5050006;28;20499;-63
2022/05/17 09:40:31;;;;;;;6.93;6.63;;;;;;;28.22;24.99;100680.34;5034578;28;20075;-63
2022/05/17 09:42:57;;;;;;;6.85;6.55;;;;;;;27.64;26.01;100677.56;5026844;28;20067;-63
2022/05/17 09:45:39;;;;;;;7.10;6.80;;;;;;;27.86;26.63;100666.22;5030761;28;20037;-63
2022/05/17 09:48:07;;;;;;;6.65;6.35;;;;;;;28.82;25.18;100676.09;5034560;28;20029;-64
2022/05/17 09:53:47;;;;;;;6.70;6.40;;;;;;;27.38;25.89;100655.13;5034365;28;20114;-63
2022/05/17 09:56:16;;;;;;;6.70;6.40;;;;;;;27.64;25.43;100664.72;5022122;28;20029;-63
2022/05/17 09:58:43;;;;;;;6.78;6.47;;;;;;;27.76;25.73;100651.59;5034373;28;20432;-62
2022/05/17 10:01:20;;;;;;;6.80;6.50;;;;;;;27.25;26.53;100662.84;5034750;28;20029;-64
2022/05/17 10:04:09;;;;;;;6.88;6.57;;;;;;;27.64;25.83;100647.56;5022503;28;20166;-62
2022/05/17 10:06:37;;;;;;;6.90;6.60;;;;;;;27.12;26.13;100646.31;5032256;28;20017;-62
2022/05/17 10:09:07;;;;;;;6.88;6.57;;;;;;;27.57;26.23;100638.91;5033953;28;20160;-64
2022/05/17 10:12:05;;;;;;;6.75;6.45;;;;;;;27.12;26.62;100649.03;5020291;28;20112;-63
2022/05/17 10:14:44;;;;;;;6.80;6.50;;;;;;;26.82;26.83;100642.63;5020336;28;20033;-62
2022/05/17 10:17:40;;;;;;;6.70;6.40;;;;;;;26.67;27.32;100637.28;5034096;28;20022;-63
2022/05/17 10:20:11;;;;;;;6.70;6.40;;;;;;;26.44;27.51;100630.53;5032887;28;20041;-63
2022/05/17 10:23:01;;;;;;;6.80;6.50;;;;;;;26.98;27.08;100641.47;5033651;28;20025;-63
2022/05/17 10:26:07;;;;;;;6.90;6.60;;;;;;;27.48;26.87;100641.44;5033407;28;20021;-64
2022/05/17 10:28:41;;;;;;;7.07;6.78;;;;;;;27.26;27.01;100636.41;4980563;28;20074;-63
2022/05/17 10:31:16;;;;;;;;;;;;;;;27.39;26.80;100626.78;4992427;28;20036;-64
2022/05/17 10:33:54;;;;;;;;;;;;;;;27.29;26.81;100615.97;5017374;28;20295;-63
2022/05/17 10:36:27;;;;;;;6.85;6.55;;;;;;;27.77;26.49;100615.03;5033487;28;20044;-64
2022/05/17 10:39:21;;;;;;;6.50;6.20;;;;;;;26.90;26.93;100603.94;5033518;28;20544;-63
2022/05/17 10:41:47;;;;;;;6.40;6.10;;;;;;;27.09;27.05;100612.28;5019858;28;20022;-63
2022/05/17 10:44:17;;;;;;;6.70;6.40;;;;;;;27.42;26.53;100607.16;5030010;28;20049;-63
2022/05/17 10:46:49;;;;;;;6.78;6.47;;;;;;;27.70;26.53;100606.38;5033206;28;20105;-63
2022/05/17 10:49:22;;;;;;;6.50;6.20;;;;;;;26.97;27.20;100604.44;5031361;28;20021;-63
2022/05/17 10:52:19;;;;;;;6.60;6.30;;;;;;;26.71;28.20;100603.75;5028176;28;20129;-63
2022/05/17 10:55:12;;;;;;;6.95;6.65;;;;;;;27.17;27.22;100602.69;5023958;28;20520;-62
2022/05/17 10:58:07;;;;;;;6.80;6.50;;;;;;;27.48;26.58;100604.09;5033178;28;20036;-63
2022/05/17 11:00:41;;;;;;;6.57;6.28;;;;;;;27.66;26.34;100601.75;5033002;28;20029;-62
2022/05/17 11:03:35;;;;;;;6.80;6.50;;;;;;;27.56;26.56;100597.22;5032958;28;20038;-62
2022/05/17 11:06:26;;;;;;;6.63;6.32;;;;;;;27.62;26.35;100604.25;5030919;28;20025;-64
2022/05/17 11:09:20;;;;;;;6.80;6.50;;;;;;;27.56;26.75;100593.69;5032818;28;20025;-63
2022/05/17 11:12:04;;;;;;;6.90;6.60;;;;;;;27.83;26.49;100593.16;5027595;28;20066;-64
2022/05/17 11:14:57;;;;;;;6.95;6.65;;;;;;;27.34;27.05;100585.97;5020593;28;20116;-63
2022/05/17 11:17:51;;;;;;;6.70;6.40;;;;;;;27.56;26.19;100589.03;5032307;28;20837;-63
2022/05/17 11:20:32;;;;;;;6.80;6.50;;;;;;;28.45;25.66;100596.88;5030116;28;20111;-64
2022/05/17 11:23:03;;;;;;;6.95;6.65;;;;;;;28.41;26.05;100593.09;5032737;28;20045;-64
2022/05/17 11:25:47;;;;;;;7.00;6.70;;;;;;;27.93;25.51;100582.19;5026814;28;20104;-64
2022/05/17 11:28:19;;;;;;;;;;;;;;;27.49;26.23;100583.13;5027899;28;20068;-63
2022/05/17 11:31:11;;;;;;;6.72;6.43;;;;;;;27.38;26.02;100581.56;5032419;28;20008;-62
2022/05/17 11:33:40;;;;;;;6.82;6.53;;;;;;;27.42;26.41;100575.25;5025211;28;20568;-63
2022/05/17 11:36:31;;;;;;;6.55;6.25;;;;;;;25.62;28.01;100586.34;5032324;28;20025;-64
2022/05/17 11:38:58;;;;;;;6.72;6.43;;;;;;;25.93;27.79;100570.88;5026324;28;20521;-64
2022/05/17 11:41:33;;;;;;;7.07;6.78;;;;;;;26.67;27.40;100567.34;5032107;28;20021;-63
2022/05/17 11:44:07;;;;;;;6.60;6.30;;;;;;;27.46;26.80;100564.59;5030483;28;20413;-63
2022/05/17 11:46:34;;;;;;;6.50;6.20;;;;;;;27.11;26.74;100571.97;5032083;28;20041;-63
2022/05/17 11:49:02;;;;;;;6.68;6.38;;;;;;;26.89;26.59;100568.84;5030681;28;20095;-64
2022/05/17 11:51:35;;;;;;;6.78;6.47;;;;;;;26.93;26.78;100559.81;5031821;28;20033;-63